createdAt,value
2023-04-01T00:00:28.515Z,1.00
2023-04-01T00:02:55.812Z,1.20
2023-04-01T00:05:23.118Z,1.00
2023-04-01T00:07:49.837Z,0.80
2023-04-01T00:10:16.597Z,0.70
2023-04-01T00:12:43.547Z,1.07
2023-04-01T00:15:12.406Z,0.87
2023-04-01T00:17:39.618Z,0.77
2023-04-01T00:20:08.941Z,0.83
2023-04-01T00:22:36.072Z,1.27
2023-04-01T00:25:03.793Z,0.90
2023-04-01T00:27:30.719Z,0.83
2023-04-01T00:29:58.167Z,0.93
2023-04-01T00:32:25.122Z,0.80
2023-04-01T00:34:52.884Z,1.10
2023-04-01T00:37:22.028Z,1.03
2023-04-01T00:39:48.859Z,0.80
2023-04-01T00:42:15.673Z,0.87
2023-04-01T00:44:43.192Z,1.00
2023-04-01T00:47:10.331Z,0.73
2023-04-01T00:49:41.931Z,1.17
2023-04-01T00:52:09.906Z,0.77
2023-04-01T00:54:37.413Z,1.00
2023-04-01T00:57:10.445Z,0.80
2023-04-01T00:59:42.055Z,0.80
2023-04-01T01:02:11.662Z,0.67
2023-04-01T01:04:39.367Z,0.70
2023-04-01T01:07:40.852Z,0.93
2023-04-01T01:10:30.400Z,0.93
2023-04-01T01:13:28.034Z,0.70
2023-04-01T01:16:05.964Z,0.60
2023-04-01T01:18:41.421Z,0.80
2023-04-01T01:21:22.025Z,0.80
2023-04-01T01:23:56.180Z,0.80
2023-04-01T01:26:32.206Z,1.23
2023-04-01T01:29:17.730Z,0.73
2023-04-01T01:32:15.001Z,1.17
2023-04-01T01:34:53.998Z,0.73
2023-04-01T01:37:23.888Z,0.80
2023-04-01T01:39:55.940Z,0.97
2023-04-01T01:42:24.194Z,0.80
2023-04-01T01:44:53.539Z,0.83
2023-04-01T01:47:21.150Z,0.80
2023-04-01T01:49:49.390Z,0.90
2023-04-01T01:52:18.135Z,0.70
2023-04-01T01:54:50.134Z,0.80
2023-04-01T01:57:18.570Z,0.70
2023-04-01T01:59:48.822Z,0.70
2023-04-01T02:02:24.076Z,0.53
2023-04-01T02:04:51.667Z,0.90
2023-04-01T02:07:23.167Z,0.60
2023-04-01T02:09:50.130Z,0.77
2023-04-01T02:12:18.499Z,0.80
2023-04-01T02:14:55.761Z,0.80
2023-04-01T02:17:25.415Z,1.10
2023-04-01T02:20:01.286Z,1.00
2023-04-01T02:22:31.148Z,1.20
2023-04-01T02:25:00.830Z,1.40
2023-04-01T02:27:28.018Z,1.33
2023-04-01T02:29:56.054Z,1.20
2023-04-01T02:32:23.069Z,1.10
2023-04-01T02:34:50.248Z,1.10
2023-04-01T02:37:17.171Z,1.10
2023-04-01T02:39:44.085Z,1.00
2023-04-01T02:42:11.520Z,0.90
2023-04-01T02:44:38.291Z,1.30
2023-04-01T02:47:05.609Z,1.63
2023-04-01T02:49:32.558Z,1.27
2023-04-01T02:51:59.279Z,1.40
2023-04-01T02:54:26.283Z,1.40
2023-04-01T02:56:53.094Z,1.30
2023-04-01T02:59:20.065Z,1.63
2023-04-01T03:01:46.818Z,1.40
2023-04-01T03:04:13.643Z,1.40
2023-04-01T03:06:40.405Z,1.50
2023-04-01T03:09:07.406Z,1.57
2023-04-01T03:11:34.340Z,1.50
2023-04-01T03:14:01.165Z,1.47
2023-04-01T03:16:28.102Z,1.20
2023-04-01T03:18:57.805Z,1.40
2023-04-01T03:21:25.413Z,1.40
2023-04-01T03:23:52.691Z,1.70
2023-04-01T03:26:19.867Z,1.40
2023-04-01T03:28:46.837Z,1.50
2023-04-01T03:31:14.360Z,1.40
2023-04-01T03:33:47.795Z,1.60
2023-04-01T03:36:14.823Z,1.57
2023-04-01T03:38:42.719Z,2.13
2023-04-01T03:41:13.842Z,2.50
2023-04-01T03:43:40.625Z,2.17
2023-04-01T03:46:07.576Z,2.03
2023-04-01T03:48:35.629Z,2.13
2023-04-01T03:51:02.454Z,2.30
2023-04-01T03:53:30.890Z,2.50
2023-04-01T03:56:05.671Z,2.40
2023-04-01T03:58:33.442Z,2.47
2023-04-01T04:01:01.924Z,2.83
2023-04-01T04:03:29.481Z,3.00
2023-04-01T04:05:57.429Z,3.10
2023-04-01T04:08:24.207Z,3.40
2023-04-01T04:10:57.574Z,3.20
2023-04-01T04:13:24.628Z,2.97
2023-04-01T04:15:59.899Z,3.33
2023-04-01T04:18:27.180Z,3.27
2023-04-01T04:20:53.972Z,3.30
2023-04-01T04:23:21.276Z,3.60
2023-04-01T04:26:03.430Z,3.40
2023-04-01T04:28:31.334Z,4.50
2023-04-01T04:30:59.262Z,4.73
2023-04-01T04:33:26.935Z,4.07
2023-04-01T04:35:56.335Z,3.80
2023-04-01T04:38:23.965Z,4.00
2023-04-01T04:40:50.935Z,3.30
2023-04-01T04:43:18.375Z,3.43
2023-04-01T04:45:46.029Z,3.10
2023-04-01T04:48:17.271Z,3.00
2023-04-01T04:50:49.637Z,2.80
2023-04-01T04:53:19.104Z,2.70
2023-04-01T04:55:47.687Z,2.47
2023-04-01T04:58:38.622Z,2.60
2023-04-01T05:01:14.240Z,2.13
2023-04-01T05:03:41.914Z,2.37
2023-04-01T05:06:10.256Z,2.10
2023-04-01T05:08:40.184Z,2.23
2023-04-01T05:11:20.587Z,2.37
2023-04-01T05:13:48.253Z,2.30
2023-04-01T05:16:17.879Z,2.10
2023-04-01T05:18:44.819Z,1.60
2023-04-01T05:21:13.320Z,2.93
2023-04-01T05:23:40.450Z,1.40
2023-04-01T05:26:08.931Z,1.40
2023-04-01T05:28:36.071Z,1.37
2023-04-01T05:31:04.118Z,1.50
2023-04-01T05:33:35.606Z,1.60
2023-04-01T05:36:21.796Z,1.50
2023-04-01T05:38:48.902Z,1.60
2023-04-01T05:41:17.729Z,1.40
2023-04-01T05:43:46.399Z,1.10
2023-04-01T05:46:33.470Z,1.30
2023-04-01T05:49:14.617Z,1.10
2023-04-01T05:51:41.535Z,1.00
2023-04-01T05:54:09.101Z,0.87
2023-04-01T05:56:36.615Z,1.00
2023-04-01T05:59:03.653Z,1.27
2023-04-01T06:01:30.481Z,1.30
2023-04-01T06:03:57.748Z,1.40
2023-04-01T06:06:28.694Z,1.63
2023-04-01T06:09:14.622Z,1.50
2023-04-01T06:12:04.401Z,1.63
2023-04-01T06:14:34.327Z,1.63
2023-04-01T06:17:09.735Z,2.07
2023-04-01T06:20:07.814Z,1.77
2023-04-01T06:22:54.375Z,2.23
2023-04-01T06:26:02.624Z,2.50
2023-04-01T06:29:01.797Z,2.37
2023-04-01T06:31:44.100Z,2.73
2023-04-01T06:34:20.585Z,2.60
2023-04-01T06:37:23.638Z,3.17
2023-04-01T06:40:24.553Z,3.10
2023-04-01T06:46:09.259Z,2.80
2023-04-01T06:49:04.739Z,3.80
2023-04-01T06:51:56.901Z,2.57
2023-04-01T06:54:49.178Z,3.10
2023-04-01T06:57:40.521Z,3.20
2023-04-01T07:00:15.986Z,2.50
2023-04-01T07:03:27.896Z,2.90
2023-04-01T07:05:58.230Z,2.60
2023-04-01T07:08:28.776Z,2.77
2023-04-01T07:11:03.153Z,3.00
2023-04-01T07:14:28.619Z,3.20
2023-04-01T07:17:18.080Z,2.60
2023-04-01T07:20:24.440Z,3.13
2023-04-01T07:22:53.566Z,3.13
2023-04-01T07:25:48.640Z,3.10
2023-04-01T07:28:41.632Z,2.70
2023-04-01T07:31:33.675Z,3.27
2023-04-01T07:34:27.733Z,2.63
2023-04-01T07:37:02.591Z,2.50
2023-04-01T07:39:50.461Z,2.20
2023-04-01T07:42:52.837Z,1.50
2023-04-01T07:45:43.149Z,0.87
2023-04-01T07:48:34.009Z,0.90
2023-04-01T07:51:16.626Z,0.77
2023-04-01T07:54:14.788Z,0.73
2023-04-01T07:57:20.874Z,0.80
2023-04-01T08:00:15.571Z,0.80
2023-04-01T08:03:02.364Z,1.17
2023-04-01T08:05:34.303Z,1.43
2023-04-01T08:08:07.362Z,1.00
2023-04-01T08:11:18.539Z,0.90
2023-04-01T08:14:25.906Z,0.80
2023-04-01T08:17:17.415Z,0.70
2023-04-01T08:19:57.645Z,0.60
2023-04-01T08:22:30.821Z,0.63
2023-04-01T08:25:04.396Z,0.50
2023-04-01T08:27:45.908Z,0.50
2023-04-01T08:30:22.975Z,0.43
2023-04-01T08:33:09.389Z,0.50
2023-04-01T08:35:46.771Z,0.40
2023-04-01T08:38:27.842Z,0.40
2023-04-01T08:41:03.189Z,0.43
2023-04-01T08:44:24.742Z,0.43
2023-04-01T08:47:07.061Z,0.40
2023-04-01T08:49:57.180Z,0.80
2023-04-01T08:53:13.795Z,0.70
2023-04-01T08:55:53.510Z,0.60
2023-04-01T08:58:31.955Z,0.70
2023-04-01T09:01:34.204Z,0.80
2023-04-01T09:04:20.419Z,0.70
2023-04-01T09:07:03.987Z,1.00
2023-04-01T09:09:41.063Z,0.70
2023-04-01T09:12:32.748Z,0.60
2023-04-01T09:15:03.255Z,0.70
2023-04-01T09:18:08.282Z,1.03
2023-04-01T09:20:59.240Z,0.87
2023-04-01T09:24:00.414Z,0.80
2023-04-01T09:26:36.220Z,0.60
2023-04-01T09:29:21.915Z,0.73
2023-04-01T09:31:51.943Z,0.60
2023-04-01T09:34:57.056Z,0.90
2023-04-01T09:37:53.743Z,0.83
2023-04-01T09:40:42.502Z,0.77
2023-04-01T09:43:45.289Z,0.73
2023-04-01T09:46:36.101Z,1.00
2023-04-01T09:49:21.350Z,0.80
2023-04-01T09:52:10.180Z,1.07
2023-04-01T09:54:55.766Z,0.87
2023-04-01T09:57:49.615Z,1.00
2023-04-01T10:01:13.654Z,0.97
2023-04-01T10:03:46.529Z,1.10
2023-04-01T10:06:19.534Z,1.00
2023-04-01T10:08:55.833Z,1.27
2023-04-01T10:11:58.430Z,1.40
2023-04-01T10:15:09.062Z,1.43
2023-04-01T10:17:51.468Z,1.50
2023-04-01T10:20:40.143Z,1.70
2023-04-01T10:23:25.418Z,1.47
2023-04-01T10:26:17.658Z,1.43
2023-04-01T10:28:58.643Z,1.40
2023-04-01T10:31:42.478Z,1.40
2023-04-01T10:34:30.620Z,1.50
2023-04-01T10:37:35.026Z,1.80
2023-04-01T10:40:06.017Z,1.83
2023-04-01T10:43:20.754Z,1.60
2023-04-01T10:46:30.620Z,2.27
2023-04-01T10:49:26.357Z,1.77
2023-04-01T10:52:43.577Z,1.67
2023-04-01T10:56:01.025Z,1.40
2023-04-01T10:59:09.095Z,1.40
2023-04-01T11:02:12.053Z,1.27
2023-04-01T11:05:07.310Z,1.30
2023-04-01T11:08:09.970Z,0.77
2023-04-01T11:11:05.392Z,1.07
2023-04-01T11:13:56.161Z,1.20
2023-04-01T11:16:41.340Z,1.20
2023-04-01T11:19:27.422Z,1.00
2023-04-01T11:22:16.310Z,0.87
2023-04-01T11:25:12.624Z,0.70
2023-04-01T11:28:07.073Z,0.80
2023-04-01T11:31:15.083Z,0.70
2023-04-01T11:33:51.607Z,0.57
2023-04-01T11:36:40.312Z,0.67
2023-04-01T11:39:35.996Z,0.50
2023-04-01T11:42:22.279Z,0.70
2023-04-01T11:45:45.601Z,0.77
2023-04-01T11:48:53.940Z,0.60
2023-04-01T11:51:50.175Z,0.67
2023-04-01T11:54:57.713Z,0.70
2023-04-01T11:57:39.450Z,0.60
2023-04-01T12:00:34.190Z,0.70
2023-04-01T12:03:19.927Z,0.70
2023-04-01T12:05:56.750Z,0.80
2023-04-01T12:09:13.032Z,0.80
2023-04-01T12:12:06.483Z,0.80
2023-04-01T12:14:51.619Z,0.97
2023-04-01T12:17:46.433Z,0.73
2023-04-01T12:20:13.445Z,0.70
2023-04-01T12:23:13.427Z,0.40
2023-04-01T12:26:08.568Z,0.60
2023-04-01T12:28:43.241Z,0.60
2023-04-01T12:31:31.819Z,0.90
2023-04-01T12:34:30.778Z,0.73
2023-04-01T12:37:19.606Z,0.70
2023-04-01T12:40:12.058Z,0.70
2023-04-01T12:42:48.088Z,0.80
2023-04-01T12:45:18.162Z,1.00
2023-04-01T12:48:18.480Z,1.07
2023-04-01T12:51:29.002Z,1.00
2023-04-01T12:54:47.424Z,1.00
2023-04-01T12:57:37.455Z,1.20
2023-04-01T13:00:43.341Z,0.90
2023-04-01T13:03:50.566Z,1.03
2023-04-01T13:06:42.499Z,0.80
2023-04-01T13:09:37.121Z,0.60
2023-04-01T13:12:29.646Z,0.77
2023-04-01T13:24:24.675Z,0.60
2023-04-01T13:27:32.424Z,0.50
2023-04-01T13:30:46.584Z,0.60
2023-04-01T13:33:49.589Z,0.53
2023-04-01T13:37:02.349Z,0.57
2023-04-01T13:40:00.214Z,0.80
2023-04-01T13:42:46.788Z,0.60
2023-04-01T13:45:41.052Z,0.80
2023-04-01T13:48:38.739Z,0.70
2023-04-01T13:51:06.684Z,0.70
2023-04-01T13:57:24.904Z,0.50
2023-04-01T14:00:03.726Z,0.77
2023-04-01T14:03:20.171Z,0.50
2023-04-01T14:06:28.399Z,0.50
2023-04-01T14:11:44.591Z,0.60
2023-04-01T14:14:30.395Z,0.70
2023-04-01T14:27:31.922Z,1.20
2023-04-01T14:30:44.926Z,1.63
2023-04-01T14:33:23.558Z,2.20
2023-04-01T14:36:11.851Z,1.83
2023-04-01T14:39:04.213Z,2.10
2023-04-01T14:42:21.372Z,2.00
2023-04-01T14:45:09.004Z,2.00
2023-04-01T14:48:04.671Z,1.90
2023-04-01T14:50:43.493Z,2.10
2023-04-01T14:53:26.893Z,2.23
2023-04-01T14:55:57.133Z,2.97
2023-04-01T14:58:27.388Z,2.07
2023-04-01T15:01:13.313Z,2.30
2023-04-01T15:03:52.245Z,2.27
2023-04-01T15:06:47.989Z,1.70
2023-04-01T15:09:22.086Z,1.63
2023-04-01T15:12:31.367Z,1.40
2023-04-01T15:15:16.370Z,1.20
2023-04-01T15:18:13.856Z,1.30
2023-04-01T15:21:17.308Z,0.90
2023-04-01T15:24:02.185Z,0.90
2023-04-01T15:26:44.986Z,0.80
2023-04-01T15:29:24.080Z,0.70
2023-04-01T15:32:24.680Z,1.00
2023-04-01T15:34:52.396Z,0.70
2023-04-01T15:37:23.228Z,0.70
2023-04-01T15:40:04.841Z,0.93
2023-04-01T15:42:52.551Z,1.00
2023-04-01T15:45:51.051Z,1.00
2023-04-01T15:48:33.736Z,1.03
2023-04-01T15:51:23.244Z,0.90
2023-04-01T15:54:14.033Z,0.90
2023-04-01T15:56:55.193Z,1.10
2023-04-01T15:59:48.501Z,1.20
2023-04-01T16:02:24.249Z,1.27
2023-04-01T16:04:53.596Z,1.23
2023-04-01T16:07:45.474Z,1.00
2023-04-01T16:10:32.991Z,1.20
2023-04-01T16:13:12.252Z,1.30
2023-04-01T16:16:03.548Z,1.50
2023-04-01T16:18:56.565Z,1.20
2023-04-01T16:21:38.523Z,1.20
2023-04-01T16:24:16.574Z,1.50
2023-04-01T16:27:14.150Z,1.20
2023-04-01T16:29:46.704Z,1.20
2023-04-01T16:32:37.480Z,1.07
2023-04-01T16:35:13.225Z,1.23
2023-04-01T16:37:47.181Z,1.30
2023-04-01T16:40:35.609Z,1.10
2023-04-01T16:43:26.508Z,0.90
2023-04-01T16:46:31.652Z,1.03
2023-04-01T16:49:05.832Z,1.10
2023-04-01T16:51:49.649Z,1.20
2023-04-01T16:54:22.636Z,1.53
2023-04-01T16:57:04.951Z,1.73
2023-04-01T16:59:41.801Z,2.00
2023-04-01T17:02:10.632Z,1.77
2023-04-01T17:05:01.833Z,1.80
2023-04-01T17:07:34.611Z,1.80
2023-04-01T17:10:19.838Z,2.10
2023-04-01T17:12:52.893Z,1.87
2023-04-01T17:15:31.589Z,1.90
2023-04-01T17:18:26.413Z,2.03
2023-04-01T17:20:58.501Z,2.20
2023-04-01T17:23:35.681Z,1.97
2023-04-01T17:26:16.477Z,2.13
2023-04-01T17:28:50.549Z,2.10
2023-04-01T17:31:20.611Z,2.13
2023-04-01T17:34:06.609Z,2.00
2023-04-01T17:36:58.514Z,2.00
2023-04-01T17:39:50.904Z,2.00
2023-04-01T17:42:40.853Z,2.23
2023-04-01T17:45:31.102Z,2.17
2023-04-01T17:48:09.912Z,1.90
2023-04-01T17:50:46.948Z,1.80
2023-04-01T17:53:21.492Z,2.00
2023-04-01T17:56:04.128Z,2.30
2023-04-01T17:58:48.484Z,1.90
2023-04-01T18:01:23.182Z,2.23
2023-04-01T18:03:59.297Z,2.10
2023-04-01T18:06:39.319Z,2.20
2023-04-01T18:09:21.632Z,2.50
2023-04-01T18:12:03.752Z,2.40
2023-04-01T18:14:51.827Z,2.20
2023-04-01T18:17:20.809Z,2.30
2023-04-01T18:20:07.639Z,2.40
2023-04-01T18:22:58.498Z,2.13
2023-04-01T18:25:37.848Z,2.40
2023-04-01T18:28:17.532Z,2.40
2023-04-01T18:30:51.289Z,2.33
2023-04-01T18:33:31.271Z,2.53
2023-04-01T18:36:09.584Z,2.70
2023-04-01T18:38:45.992Z,2.53
2023-04-01T18:41:28.539Z,2.63
2023-04-01T18:44:07.077Z,2.93
2023-04-01T18:47:04.468Z,2.77
2023-04-01T18:49:42.889Z,3.20
2023-04-01T18:52:14.855Z,2.70
2023-04-01T18:54:49.483Z,3.30
2023-04-01T18:57:18.622Z,3.40
2023-04-01T18:59:47.827Z,3.13
2023-04-01T19:02:28.957Z,3.20
2023-04-01T19:05:01.873Z,3.13
2023-04-01T19:07:34.898Z,3.20
2023-04-01T19:10:32.352Z,3.20
2023-04-01T19:13:02.348Z,3.00
2023-04-01T19:16:06.726Z,3.20
2023-04-01T19:19:04.578Z,2.80
2023-04-01T19:21:49.015Z,3.50
2023-04-01T19:24:28.068Z,3.13
2023-04-01T19:27:06.998Z,3.80
2023-04-01T19:30:01.099Z,3.93
2023-04-01T19:32:46.352Z,3.53
2023-04-01T19:35:21.024Z,3.53
2023-04-01T19:38:11.294Z,5.00
2023-04-01T19:40:47.180Z,3.80
2023-04-01T19:43:29.970Z,3.37
2023-04-01T19:46:07.518Z,4.67
2023-04-01T19:49:05.376Z,4.07
2023-04-01T19:51:44.690Z,3.50
2023-04-01T19:54:49.043Z,3.67
2023-04-01T19:57:25.733Z,3.90
2023-04-01T20:00:07.790Z,3.53
2023-04-01T20:02:41.141Z,3.70
2023-04-01T20:05:33.489Z,4.23
2023-04-01T20:08:11.975Z,4.10
2023-04-01T20:10:51.501Z,3.70
2023-04-01T20:13:46.893Z,4.50
2023-04-01T20:16:16.529Z,5.10
2023-04-01T20:19:03.738Z,3.93
2023-04-01T20:21:43.673Z,4.10
2023-04-01T20:24:22.959Z,4.07
2023-04-01T20:26:54.726Z,4.30
2023-04-01T20:29:44.376Z,4.23
2023-04-01T20:32:31.089Z,4.40
2023-04-01T20:35:32.799Z,4.30
2023-04-01T20:38:11.994Z,4.70
2023-04-01T20:40:44.147Z,5.07
2023-04-01T20:43:32.026Z,5.07
2023-04-01T20:46:02.990Z,5.90
2023-04-01T20:48:47.708Z,6.57
2023-04-01T20:51:16.904Z,7.07
2023-04-01T20:53:44.296Z,6.53
2023-04-01T20:56:19.228Z,6.43
2023-04-01T20:59:06.549Z,7.33
2023-04-01T21:01:35.990Z,9.10
2023-04-01T21:04:10.101Z,8.40
2023-04-01T21:06:46.940Z,9.27
2023-04-01T21:09:17.308Z,10.00
2023-04-01T21:12:09.193Z,9.20
2023-04-01T21:14:48.253Z,9.50
2023-04-01T21:18:12.339Z,9.63
2023-04-01T21:21:09.105Z,10.17
2023-04-01T21:24:09.697Z,10.47
2023-04-01T21:27:11.245Z,10.23
2023-04-01T21:29:53.412Z,10.40
2023-04-01T21:32:33.551Z,9.30
2023-04-01T21:35:22.150Z,9.30
2023-04-01T21:37:58.990Z,9.97
2023-04-01T21:40:59.859Z,7.87
2023-04-01T21:43:47.236Z,7.63
2023-04-01T21:46:38.015Z,6.93
2023-04-01T21:49:15.768Z,6.77
2023-04-01T21:52:06.851Z,5.43
2023-04-01T21:55:21.396Z,5.30
2023-04-01T21:58:17.436Z,6.17
2023-04-01T22:01:03.216Z,5.83
2023-04-01T22:03:48.078Z,5.63
2023-04-01T22:06:36.349Z,5.10
2023-04-01T22:09:12.020Z,5.30
2023-04-01T22:11:57.352Z,6.30
2023-04-01T22:14:43.053Z,7.27
2023-04-01T22:17:27.537Z,8.77
2023-04-01T22:20:10.904Z,8.30
2023-04-01T22:22:56.384Z,9.17
2023-04-01T22:25:32.882Z,9.37
2023-04-01T22:28:05.912Z,9.43
2023-04-01T22:30:42.087Z,9.20
2023-04-01T22:33:24.471Z,8.40
2023-04-01T22:36:27.924Z,8.73
2023-04-01T22:39:07.128Z,8.00
2023-04-01T22:41:37.176Z,8.77
2023-04-01T22:44:04.238Z,8.93
2023-04-01T22:47:09.661Z,8.60
2023-04-01T22:49:48.252Z,9.10
2023-04-01T22:52:33.727Z,8.97
2023-04-01T22:55:14.764Z,9.13
2023-04-01T22:57:53.449Z,9.10
2023-04-01T23:00:32.827Z,8.53
2023-04-01T23:03:16.249Z,8.27
2023-04-01T23:05:52.908Z,8.33
2023-04-01T23:08:28.558Z,8.80
2023-04-01T23:11:00.182Z,8.20
2023-04-01T23:13:33.460Z,7.87
2023-04-01T23:16:00.859Z,7.37
2023-04-01T23:18:33.885Z,8.03
2023-04-01T23:21:20.420Z,7.63
2023-04-01T23:23:54.504Z,6.93
2023-04-01T23:26:26.607Z,8.23
2023-04-01T23:28:55.607Z,7.93
2023-04-01T23:31:37.832Z,7.87
2023-04-01T23:34:13.713Z,8.17
2023-04-01T23:36:40.562Z,8.67
2023-04-01T23:39:20.781Z,8.63
2023-04-01T23:41:47.823Z,8.23
2023-04-01T23:44:15.437Z,7.67
2023-04-01T23:46:44.141Z,7.67
2023-04-01T23:49:22.076Z,7.77
2023-04-01T23:51:58.242Z,7.33
2023-04-01T23:54:33.390Z,7.47
2023-04-01T23:57:00.980Z,7.40
2023-04-01T23:59:32.533Z,6.57
